sensor_id;sensor_type;location;lat;lon;timestamp;temperature;humidity
15105;DHT22;7653;48.994;9.212;2022-09-20T00:00:10;10.50;99.50
15105;DHT22;7653;48.994;9.212;2022-09-20T00:02:37;10.50;99.40
15105;DHT22;7653;48.994;9.212;2022-09-20T00:05:03;10.40;99.30
15105;DHT22;7653;48.994;9.212;2022-09-20T00:07:29;10.50;99.40
15105;DHT22;7653;48.994;9.212;2022-09-20T00:09:55;10.40;99.10
15105;DHT22;7653;48.994;9.212;2022-09-20T00:12:22;10.40;99.10
15105;DHT22;7653;48.994;9.212;2022-09-20T00:14:49;10.40;98.90
15105;DHT22;7653;48.994;9.212;2022-09-20T00:17:15;10.40;98.40
15105;DHT22;7653;48.994;9.212;2022-09-20T00:19:40;10.30;98.00
15105;DHT22;7653;48.994;9.212;2022-09-20T00:22:06;10.30;97.70
15105;DHT22;7653;48.994;9.212;2022-09-20T00:24:31;10.40;97.60
15105;DHT22;7653;48.994;9.212;2022-09-20T00:26:59;10.40;97.60
15105;DHT22;7653;48.994;9.212;2022-09-20T00:29:25;10.40;97.80
15105;DHT22;7653;48.994;9.212;2022-09-20T00:31:51;10.30;98.10
15105;DHT22;7653;48.994;9.212;2022-09-20T00:34:18;10.40;98.00
15105;DHT22;7653;48.994;9.212;2022-09-20T00:37:03;10.30;98.00
15105;DHT22;7653;48.994;9.212;2022-09-20T00:39:29;10.30;97.80
15105;DHT22;7653;48.994;9.212;2022-09-20T00:41:55;10.30;97.10
15105;DHT22;7653;48.994;9.212;2022-09-20T00:44:40;10.30;97.10
15105;DHT22;7653;48.994;9.212;2022-09-20T00:49:43;10.40;97.40
15105;DHT22;7653;48.994;9.212;2022-09-20T00:52:08;10.30;97.90
15105;DHT22;7653;48.994;9.212;2022-09-20T00:54:35;10.30;97.50
15105;DHT22;7653;48.994;9.212;2022-09-20T00:57:00;10.30;97.70
15105;DHT22;7653;48.994;9.212;2022-09-20T00:59:29;10.40;97.90
15105;DHT22;7653;48.994;9.212;2022-09-20T01:02:05;10.30;98.10
15105;DHT22;7653;48.994;9.212;2022-09-20T01:04:33;10.10;97.40
15105;DHT22;7653;48.994;9.212;2022-09-20T01:07:02;9.90;98.00
15105;DHT22;7653;48.994;9.212;2022-09-20T01:09:30;10.10;98.10
15105;DHT22;7653;48.994;9.212;2022-09-20T01:11:56;10.10;98.00
15105;DHT22;7653;48.994;9.212;2022-09-20T01:14:24;10.10;97.90
15105;DHT22;7653;48.994;9.212;2022-09-20T01:16:53;10.20;98.00
15105;DHT22;7653;48.994;9.212;2022-09-20T01:19:38;10.30;98.10
15105;DHT22;7653;48.994;9.212;2022-09-20T01:22:27;10.20;97.70
15105;DHT22;7653;48.994;9.212;2022-09-20T01:25:10;10.20;97.50
15105;DHT22;7653;48.994;9.212;2022-09-20T01:30:29;10.20;97.30
15105;DHT22;7653;48.994;9.212;2022-09-20T01:33:01;10.10;97.00
15105;DHT22;7653;48.994;9.212;2022-09-20T01:35:32;10.00;96.70
15105;DHT22;7653;48.994;9.212;2022-09-20T01:46:31;10.10;97.10
15105;DHT22;7653;48.994;9.212;2022-09-20T01:54:35;10.00;96.90
15105;DHT22;7653;48.994;9.212;2022-09-20T02:00:02;10.10;97.30
15105;DHT22;7653;48.994;9.212;2022-09-20T02:38:59;10.00;97.80
15105;DHT22;7653;48.994;9.212;2022-09-20T02:41:53;10.00;97.80
15105;DHT22;7653;48.994;9.212;2022-09-20T02:47:27;10.00;97.90
15105;DHT22;7653;48.994;9.212;2022-09-20T03:00:01;10.10;98.20
15105;DHT22;7653;48.994;9.212;2022-09-20T03:38:57;10.00;98.50
15105;DHT22;7653;48.994;9.212;2022-09-20T03:52:56;10.30;98.60
15105;DHT22;7653;48.994;9.212;2022-09-20T04:04:56;10.20;97.00
15105;DHT22;7653;48.994;9.212;2022-09-20T04:26:52;9.90;97.60
15105;DHT22;7653;48.994;9.212;2022-09-20T04:35:32;9.80;98.30
15105;DHT22;7653;48.994;9.212;2022-09-20T04:37:45;9.70;98.40
15105;DHT22;7653;48.994;9.212;2022-09-20T04:40:40;9.70;98.50
15105;DHT22;7653;48.994;9.212;2022-09-20T04:43:35;9.60;98.30
15105;DHT22;7653;48.994;9.212;2022-09-20T05:33:22;9.70;96.10
15105;DHT22;7653;48.994;9.212;2022-09-20T05:36:16;9.70;96.30
15105;DHT22;7653;48.994;9.212;2022-09-20T05:38:55;9.70;96.20
15105;DHT22;7653;48.994;9.212;2022-09-20T05:41:57;9.70;96.20
15105;DHT22;7653;48.994;9.212;2022-09-20T05:44:49;9.80;95.80
15105;DHT22;7653;48.994;9.212;2022-09-20T06:00:15;9.60;95.90
15105;DHT22;7653;48.994;9.212;2022-09-20T06:03:41;9.60;96.00
15105;DHT22;7653;48.994;9.212;2022-09-20T06:16:30;9.60;96.40
15105;DHT22;7653;48.994;9.212;2022-09-20T06:27:29;9.80;97.20
15105;DHT22;7653;48.994;9.212;2022-09-20T06:30:02;9.80;97.00
15105;DHT22;7653;48.994;9.212;2022-09-20T06:32:30;10.00;96.90
15105;DHT22;7653;48.994;9.212;2022-09-20T06:35:00;9.90;96.20
15105;DHT22;7653;48.994;9.212;2022-09-20T06:37:43;10.00;95.70
15105;DHT22;7653;48.994;9.212;2022-09-20T06:40:44;10.00;95.70
15105;DHT22;7653;48.994;9.212;2022-09-20T06:43:29;10.00;94.60
15105;DHT22;7653;48.994;9.212;2022-09-20T06:45:56;10.10;94.40
15105;DHT22;7653;48.994;9.212;2022-09-20T06:48:22;10.10;94.00
15105;DHT22;7653;48.994;9.212;2022-09-20T06:51:17;10.20;94.40
15105;DHT22;7653;48.994;9.212;2022-09-20T06:53:44;10.20;93.60
15105;DHT22;7653;48.994;9.212;2022-09-20T08:00:53;11.20;69.60
15105;DHT22;7653;48.994;9.212;2022-09-20T08:03:24;11.40;70.00
15105;DHT22;7653;48.994;9.212;2022-09-20T08:11:59;11.50;66.10
15105;DHT22;7653;48.994;9.212;2022-09-20T08:14:25;11.70;66.80
15105;DHT22;7653;48.994;9.212;2022-09-20T08:16:51;11.70;59.10
15105;DHT22;7653;48.994;9.212;2022-09-20T08:19:48;11.80;61.50
15105;DHT22;7653;48.994;9.212;2022-09-20T10:47:39;14.00;26.30
15105;DHT22;7653;48.994;9.212;2022-09-20T11:07:48;14.20;23.70
15105;DHT22;7653;48.994;9.212;2022-09-20T11:10:44;14.40;24.80
15105;DHT22;7653;48.994;9.212;2022-09-20T11:13:37;14.40;23.70
15105;DHT22;7653;48.994;9.212;2022-09-20T11:24:36;14.40;25.60
15105;DHT22;7653;48.994;9.212;2022-09-20T11:29:55;14.60;25.70
15105;DHT22;7653;48.994;9.212;2022-09-20T11:32:36;14.70;26.60
15105;DHT22;7653;48.994;9.212;2022-09-20T11:38:00;14.60;22.60
15105;DHT22;7653;48.994;9.212;2022-09-20T11:40:31;15.00;22.90
15105;DHT22;7653;48.994;9.212;2022-09-20T11:43:01;15.10;20.80
15105;DHT22;7653;48.994;9.212;2022-09-20T11:45:29;15.30;21.10
15105;DHT22;7653;48.994;9.212;2022-09-20T11:47:59;15.40;21.40
15105;DHT22;7653;48.994;9.212;2022-09-20T11:56:27;15.00;21.90
15105;DHT22;7653;48.994;9.212;2022-09-20T11:58:56;15.30;23.70
15105;DHT22;7653;48.994;9.212;2022-09-20T12:01:38;15.40;22.20
15105;DHT22;7653;48.994;9.212;2022-09-20T12:06:37;14.80;23.20
15105;DHT22;7653;48.994;9.212;2022-09-20T12:09:06;14.10;28.60
15105;DHT22;7653;48.994;9.212;2022-09-20T12:11:46;13.40;37.00
15105;DHT22;7653;48.994;9.212;2022-09-20T12:14:19;13.20;40.80
15105;DHT22;7653;48.994;9.212;2022-09-20T12:16:47;13.10;37.30
15105;DHT22;7653;48.994;9.212;2022-09-20T12:24:35;13.10;43.70
15105;DHT22;7653;48.994;9.212;2022-09-20T12:32:47;13.70;36.30
15105;DHT22;7653;48.994;9.212;2022-09-20T12:43:32;14.60;20.80
15105;DHT22;7653;48.994;9.212;2022-09-20T12:45:59;14.20;22.90
15105;DHT22;7653;48.994;9.212;2022-09-20T12:48:26;14.30;24.20
15105;DHT22;7653;48.994;9.212;2022-09-20T12:54:06;15.40;23.60
15105;DHT22;7653;48.994;9.212;2022-09-20T12:56:38;15.30;23.20
15105;DHT22;7653;48.994;9.212;2022-09-20T12:59:34;16.00;24.30
15105;DHT22;7653;48.994;9.212;2022-09-20T13:02:40;15.90;21.70
15105;DHT22;7653;48.994;9.212;2022-09-20T13:05:39;15.50;23.30
15105;DHT22;7653;48.994;9.212;2022-09-20T13:10:44;16.30;21.90
15105;DHT22;7653;48.994;9.212;2022-09-20T13:15:50;15.90;22.50
15105;DHT22;7653;48.994;9.212;2022-09-20T13:18:18;15.20;22.90
15105;DHT22;7653;48.994;9.212;2022-09-20T13:20:44;15.10;24.10
15105;DHT22;7653;48.994;9.212;2022-09-20T13:23:20;15.50;28.10
15105;DHT22;7653;48.994;9.212;2022-09-20T13:25:49;15.00;25.90
15105;DHT22;7653;48.994;9.212;2022-09-20T13:28:36;14.80;25.70
15105;DHT22;7653;48.994;9.212;2022-09-20T13:33:46;15.30;26.20
15105;DHT22;7653;48.994;9.212;2022-09-20T13:36:12;15.20;26.10
15105;DHT22;7653;48.994;9.212;2022-09-20T13:38:39;15.10;26.00
15105;DHT22;7653;48.994;9.212;2022-09-20T13:41:07;15.70;25.10
15105;DHT22;7653;48.994;9.212;2022-09-20T13:43:44;15.90;25.00
15105;DHT22;7653;48.994;9.212;2022-09-20T13:46:28;16.00;26.70
15105;DHT22;7653;48.994;9.212;2022-09-20T13:49:17;15.90;26.20
15105;DHT22;7653;48.994;9.212;2022-09-20T13:51:48;16.80;22.20
15105;DHT22;7653;48.994;9.212;2022-09-20T13:54:49;16.70;19.90
15105;DHT22;7653;48.994;9.212;2022-09-20T15:04:35;16.60;14.60
15105;DHT22;7653;48.994;9.212;2022-09-20T15:07:04;16.90;14.60
15105;DHT22;7653;48.994;9.212;2022-09-20T15:09:31;16.80;13.70
15105;DHT22;7653;48.994;9.212;2022-09-20T15:12:00;17.00;13.90
15105;DHT22;7653;48.994;9.212;2022-09-20T15:14:27;17.10;13.90
15105;DHT22;7653;48.994;9.212;2022-09-20T15:16:54;17.20;13.30
15105;DHT22;7653;48.994;9.212;2022-09-20T15:19:20;16.90;14.80
15105;DHT22;7653;48.994;9.212;2022-09-20T15:21:45;15.70;16.40
15105;DHT22;7653;48.994;9.212;2022-09-20T15:24:11;16.10;16.10
15105;DHT22;7653;48.994;9.212;2022-09-20T15:26:38;16.50;15.60
15105;DHT22;7653;48.994;9.212;2022-09-20T15:29:04;16.50;15.80
15105;DHT22;7653;48.994;9.212;2022-09-20T15:31:30;16.40;16.30
15105;DHT22;7653;48.994;9.212;2022-09-20T15:33:56;16.30;17.70
15105;DHT22;7653;48.994;9.212;2022-09-20T15:36:21;16.60;16.20
15105;DHT22;7653;48.994;9.212;2022-09-20T15:38:47;16.60;17.30
15105;DHT22;7653;48.994;9.212;2022-09-20T15:41:14;16.50;18.00
15105;DHT22;7653;48.994;9.212;2022-09-20T15:43:40;16.60;16.50
15105;DHT22;7653;48.994;9.212;2022-09-20T15:48:43;16.70;14.60
15105;DHT22;7653;48.994;9.212;2022-09-20T15:51:11;16.70;15.30
15105;DHT22;7653;48.994;9.212;2022-09-20T15:53:42;16.30;16.40
15105;DHT22;7653;48.994;9.212;2022-09-20T15:56:15;16.00;16.80
15105;DHT22;7653;48.994;9.212;2022-09-20T15:58:44;15.70;17.90
15105;DHT22;7653;48.994;9.212;2022-09-20T16:01:12;15.40;20.40
15105;DHT22;7653;48.994;9.212;2022-09-20T16:03:41;15.20;19.70
15105;DHT22;7653;48.994;9.212;2022-09-20T16:06:07;15.30;19.50
15105;DHT22;7653;48.994;9.212;2022-09-20T16:08:38;15.30;20.50
15105;DHT22;7653;48.994;9.212;2022-09-20T16:11:06;15.40;20.20
15105;DHT22;7653;48.994;9.212;2022-09-20T16:13:32;15.40;20.50
15105;DHT22;7653;48.994;9.212;2022-09-20T16:16:01;15.20;21.90
15105;DHT22;7653;48.994;9.212;2022-09-20T16:18:29;15.40;21.20
15105;DHT22;7653;48.994;9.212;2022-09-20T16:21:18;15.50;20.60
15105;DHT22;7653;48.994;9.212;2022-09-20T16:23:51;15.30;21.50
15105;DHT22;7653;48.994;9.212;2022-09-20T16:26:22;15.20;22.00
15105;DHT22;7653;48.994;9.212;2022-09-20T16:28:49;15.00;22.80
15105;DHT22;7653;48.994;9.212;2022-09-20T16:36:31;14.70;22.20
15105;DHT22;7653;48.994;9.212;2022-09-20T16:38:57;14.60;22.70
15105;DHT22;7653;48.994;9.212;2022-09-20T16:41:25;14.80;21.70
15105;DHT22;7653;48.994;9.212;2022-09-20T16:43:52;14.70;21.70
15105;DHT22;7653;48.994;9.212;2022-09-20T16:46:22;14.70;21.70
15105;DHT22;7653;48.994;9.212;2022-09-20T16:48:49;14.60;22.00
15105;DHT22;7653;48.994;9.212;2022-09-20T16:51:22;14.20;22.70
15105;DHT22;7653;48.994;9.212;2022-09-20T16:53:49;14.30;22.30
15105;DHT22;7653;48.994;9.212;2022-09-20T16:56:30;14.30;22.50
15105;DHT22;7653;48.994;9.212;2022-09-20T16:58:56;14.00;22.80
15105;DHT22;7653;48.994;9.212;2022-09-20T17:01:22;13.90;23.50
15105;DHT22;7653;48.994;9.212;2022-09-20T17:03:47;13.80;23.70
15105;DHT22;7653;48.994;9.212;2022-09-20T17:06:15;13.90;23.20
15105;DHT22;7653;48.994;9.212;2022-09-20T17:08:41;13.90;23.80
15105;DHT22;7653;48.994;9.212;2022-09-20T17:11:11;14.00;23.60
15105;DHT22;7653;48.994;9.212;2022-09-20T17:13:40;14.00;23.60
15105;DHT22;7653;48.994;9.212;2022-09-20T17:16:10;13.90;24.80
15105;DHT22;7653;48.994;9.212;2022-09-20T17:18:36;13.90;24.70
15105;DHT22;7653;48.994;9.212;2022-09-20T17:21:08;13.80;25.10
15105;DHT22;7653;48.994;9.212;2022-09-20T17:23:34;13.50;26.40
15105;DHT22;7653;48.994;9.212;2022-09-20T17:28:49;13.50;26.90
15105;DHT22;7653;48.994;9.212;2022-09-20T17:31:21;13.50;27.40
15105;DHT22;7653;48.994;9.212;2022-09-20T17:33:49;13.40;27.90
15105;DHT22;7653;48.994;9.212;2022-09-20T17:36:18;13.20;28.80
15105;DHT22;7653;48.994;9.212;2022-09-20T17:38:45;13.10;29.50
15105;DHT22;7653;48.994;9.212;2022-09-20T17:41:14;13.20;28.80
15105;DHT22;7653;48.994;9.212;2022-09-20T17:43:40;13.20;29.40
15105;DHT22;7653;48.994;9.212;2022-09-20T17:48:42;13.30;29.90
15105;DHT22;7653;48.994;9.212;2022-09-20T17:51:15;13.20;30.00
15105;DHT22;7653;48.994;9.212;2022-09-20T17:53:41;13.10;30.60
15105;DHT22;7653;48.994;9.212;2022-09-20T17:56:10;13.10;31.60
15105;DHT22;7653;48.994;9.212;2022-09-20T17:58:38;13.00;32.90
15105;DHT22;7653;48.994;9.212;2022-09-20T18:01:08;12.70;34.90
15105;DHT22;7653;48.994;9.212;2022-09-20T18:03:40;12.50;37.10
15105;DHT22;7653;48.994;9.212;2022-09-20T18:06:29;12.40;42.80
15105;DHT22;7653;48.994;9.212;2022-09-20T18:09:16;12.30;44.60
15105;DHT22;7653;48.994;9.212;2022-09-20T18:11:45;12.20;47.60
15105;DHT22;7653;48.994;9.212;2022-09-20T18:14:18;12.10;47.10
15105;DHT22;7653;48.994;9.212;2022-09-20T18:16:44;12.00;48.40
15105;DHT22;7653;48.994;9.212;2022-09-20T18:19:10;11.80;50.60
15105;DHT22;7653;48.994;9.212;2022-09-20T18:21:37;11.80;52.10
15105;DHT22;7653;48.994;9.212;2022-09-20T18:24:09;11.60;52.90
15105;DHT22;7653;48.994;9.212;2022-09-20T18:26:35;11.50;53.50
15105;DHT22;7653;48.994;9.212;2022-09-20T18:29:08;11.50;53.70
15105;DHT22;7653;48.994;9.212;2022-09-20T18:31:49;11.40;53.20
15105;DHT22;7653;48.994;9.212;2022-09-20T18:34:19;11.30;52.20
15105;DHT22;7653;48.994;9.212;2022-09-20T18:36:50;11.30;53.70
15105;DHT22;7653;48.994;9.212;2022-09-20T18:39:23;11.10;53.80
15105;DHT22;7653;48.994;9.212;2022-09-20T18:41:50;11.10;54.40
15105;DHT22;7653;48.994;9.212;2022-09-20T18:44:19;11.00;52.40
15105;DHT22;7653;48.994;9.212;2022-09-20T18:46:46;11.00;53.00
15105;DHT22;7653;48.994;9.212;2022-09-20T18:49:13;11.00;54.20
15105;DHT22;7653;48.994;9.212;2022-09-20T18:51:41;10.80;54.20
15105;DHT22;7653;48.994;9.212;2022-09-20T18:54:08;10.60;55.90
15105;DHT22;7653;48.994;9.212;2022-09-20T18:56:39;10.60;57.00
15105;DHT22;7653;48.994;9.212;2022-09-20T18:59:23;10.60;58.10
15105;DHT22;7653;48.994;9.212;2022-09-20T19:10:02;10.30;61.00
15105;DHT22;7653;48.994;9.212;2022-09-20T19:16:10;10.10;60.00
15105;DHT22;7653;48.994;9.212;2022-09-20T19:24:54;9.70;65.00
15105;DHT22;7653;48.994;9.212;2022-09-20T19:27:26;9.80;66.20
15105;DHT22;7653;48.994;9.212;2022-09-20T19:29:52;9.90;65.70
15105;DHT22;7653;48.994;9.212;2022-09-20T19:32:19;10.00;63.50
15105;DHT22;7653;48.994;9.212;2022-09-20T19:34:53;9.80;64.20
15105;DHT22;7653;48.994;9.212;2022-09-20T19:42:49;9.70;65.50
15105;DHT22;7653;48.994;9.212;2022-09-20T19:48:35;9.60;66.00
15105;DHT22;7653;48.994;9.212;2022-09-20T19:51:06;9.60;66.60
15105;DHT22;7653;48.994;9.212;2022-09-20T19:53:34;9.50;67.30
15105;DHT22;7653;48.994;9.212;2022-09-20T19:58:36;9.50;68.30
15105;DHT22;7653;48.994;9.212;2022-09-20T20:01:04;9.40;68.00
15105;DHT22;7653;48.994;9.212;2022-09-20T20:03:30;9.40;68.10
15105;DHT22;7653;48.994;9.212;2022-09-20T20:06:02;9.30;68.70
15105;DHT22;7653;48.994;9.212;2022-09-20T20:11:23;9.30;67.70
15105;DHT22;7653;48.994;9.212;2022-09-20T20:17:05;9.30;69.10
15105;DHT22;7653;48.994;9.212;2022-09-20T20:25:49;9.20;67.00
15105;DHT22;7653;48.994;9.212;2022-09-20T20:28:17;9.10;69.70
15105;DHT22;7653;48.994;9.212;2022-09-20T20:30:43;9.10;71.30
15105;DHT22;7653;48.994;9.212;2022-09-20T20:33:14;9.10;72.20
15105;DHT22;7653;48.994;9.212;2022-09-20T20:35:40;9.10;71.90
15105;DHT22;7653;48.994;9.212;2022-09-20T20:38:05;9.00;71.70
15105;DHT22;7653;48.994;9.212;2022-09-20T20:40:35;9.10;72.60
15105;DHT22;7653;48.994;9.212;2022-09-20T20:43:01;9.00;72.70
15105;DHT22;7653;48.994;9.212;2022-09-20T20:45:28;9.10;72.90
15105;DHT22;7653;48.994;9.212;2022-09-20T20:47:58;9.10;71.10
15105;DHT22;7653;48.994;9.212;2022-09-20T20:50:27;9.00;71.50
15105;DHT22;7653;48.994;9.212;2022-09-20T20:52:54;8.90;71.70
15105;DHT22;7653;48.994;9.212;2022-09-20T20:55:20;8.90;73.80
15105;DHT22;7653;48.994;9.212;2022-09-20T20:57:56;8.90;73.10
15105;DHT22;7653;48.994;9.212;2022-09-20T21:00:26;9.00;74.40
15105;DHT22;7653;48.994;9.212;2022-09-20T21:02:59;9.10;74.50
15105;DHT22;7653;48.994;9.212;2022-09-20T21:05:26;9.00;73.80
15105;DHT22;7653;48.994;9.212;2022-09-20T21:07:52;9.00;73.50
15105;DHT22;7653;48.994;9.212;2022-09-20T21:10:19;9.00;73.30
15105;DHT22;7653;48.994;9.212;2022-09-20T21:12:47;9.00;72.70
15105;DHT22;7653;48.994;9.212;2022-09-20T21:15:15;8.90;72.60
15105;DHT22;7653;48.994;9.212;2022-09-20T21:17:48;8.90;72.70
15105;DHT22;7653;48.994;9.212;2022-09-20T21:20:14;8.70;72.90
15105;DHT22;7653;48.994;9.212;2022-09-20T21:22:40;8.70;74.70
15105;DHT22;7653;48.994;9.212;2022-09-20T21:25:06;8.70;75.30
15105;DHT22;7653;48.994;9.212;2022-09-20T21:27:32;8.80;73.50
15105;DHT22;7653;48.994;9.212;2022-09-20T21:30:02;8.70;72.40
15105;DHT22;7653;48.994;9.212;2022-09-20T21:32:28;8.80;73.60
15105;DHT22;7653;48.994;9.212;2022-09-20T21:34:53;8.80;72.90
15105;DHT22;7653;48.994;9.212;2022-09-20T21:37:19;8.50;72.50
15105;DHT22;7653;48.994;9.212;2022-09-20T21:39:45;8.50;73.10
15105;DHT22;7653;48.994;9.212;2022-09-20T21:42:11;8.50;73.90
15105;DHT22;7653;48.994;9.212;2022-09-20T21:44:38;8.50;75.10
15105;DHT22;7653;48.994;9.212;2022-09-20T21:47:07;8.50;75.50
15105;DHT22;7653;48.994;9.212;2022-09-20T21:49:34;8.30;75.30
15105;DHT22;7653;48.994;9.212;2022-09-20T21:52:01;8.20;75.00
15105;DHT22;7653;48.994;9.212;2022-09-20T21:54:28;8.10;75.00
15105;DHT22;7653;48.994;9.212;2022-09-20T21:56:56;8.00;75.60
15105;DHT22;7653;48.994;9.212;2022-09-20T21:59:23;8.10;76.90
15105;DHT22;7653;48.994;9.212;2022-09-20T22:01:50;8.10;76.90
15105;DHT22;7653;48.994;9.212;2022-09-20T22:04:16;8.10;75.20
15105;DHT22;7653;48.994;9.212;2022-09-20T22:06:43;8.10;75.10
15105;DHT22;7653;48.994;9.212;2022-09-20T22:09:14;7.60;75.00
15105;DHT22;7653;48.994;9.212;2022-09-20T22:11:47;7.20;79.60
15105;DHT22;7653;48.994;9.212;2022-09-20T22:14:14;7.30;83.40
15105;DHT22;7653;48.994;9.212;2022-09-20T22:16:42;7.30;82.10
15105;DHT22;7653;48.994;9.212;2022-09-20T22:19:10;7.50;83.10
15105;DHT22;7653;48.994;9.212;2022-09-20T22:21:41;7.60;83.30
15105;DHT22;7653;48.994;9.212;2022-09-20T22:24:08;7.60;83.00
15105;DHT22;7653;48.994;9.212;2022-09-20T22:26:40;7.20;79.90
15105;DHT22;7653;48.994;9.212;2022-09-20T22:29:07;6.90;81.10
15105;DHT22;7653;48.994;9.212;2022-09-20T22:31:39;6.60;82.80
15105;DHT22;7653;48.994;9.212;2022-09-20T22:34:12;6.80;86.20
15105;DHT22;7653;48.994;9.212;2022-09-20T22:36:39;7.10;86.40
15105;DHT22;7653;48.994;9.212;2022-09-20T22:39:07;7.20;84.00
15105;DHT22;7653;48.994;9.212;2022-09-20T22:41:34;7.30;81.80
15105;DHT22;7653;48.994;9.212;2022-09-20T22:44:00;7.40;80.50
15105;DHT22;7653;48.994;9.212;2022-09-20T22:46:28;7.40;78.80
15105;DHT22;7653;48.994;9.212;2022-09-20T22:48:54;7.30;79.80
15105;DHT22;7653;48.994;9.212;2022-09-20T22:51:24;7.10;78.30
15105;DHT22;7653;48.994;9.212;2022-09-20T22:53:52;7.10;80.80
15105;DHT22;7653;48.994;9.212;2022-09-20T22:56:20;7.30;80.60
15105;DHT22;7653;48.994;9.212;2022-09-20T22:58:49;7.20;80.80
15105;DHT22;7653;48.994;9.212;2022-09-20T23:03:45;7.30;81.20
15105;DHT22;7653;48.994;9.212;2022-09-20T23:06:19;7.30;80.40
15105;DHT22;7653;48.994;9.212;2022-09-20T23:08:46;7.30;78.50
15105;DHT22;7653;48.994;9.212;2022-09-20T23:11:12;7.30;77.50
15105;DHT22;7653;48.994;9.212;2022-09-20T23:13:40;7.30;77.70
15105;DHT22;7653;48.994;9.212;2022-09-20T23:16:26;7.30;77.60
15105;DHT22;7653;48.994;9.212;2022-09-20T23:18:52;7.10;77.40
15105;DHT22;7653;48.994;9.212;2022-09-20T23:21:19;7.20;78.80
15105;DHT22;7653;48.994;9.212;2022-09-20T23:23:44;7.20;79.30
15105;DHT22;7653;48.994;9.212;2022-09-20T23:26:15;7.30;78.10
15105;DHT22;7653;48.994;9.212;2022-09-20T23:28:44;7.20;77.40
15105;DHT22;7653;48.994;9.212;2022-09-20T23:31:15;7.00;77.20
15105;DHT22;7653;48.994;9.212;2022-09-20T23:33:56;6.90;77.50
15105;DHT22;7653;48.994;9.212;2022-09-20T23:36:24;6.80;80.10
15105;DHT22;7653;48.994;9.212;2022-09-20T23:38:50;6.90;81.70
15105;DHT22;7653;48.994;9.212;2022-09-20T23:41:18;7.00;82.70
15105;DHT22;7653;48.994;9.212;2022-09-20T23:43:45;7.10;83.20
15105;DHT22;7653;48.994;9.212;2022-09-20T23:46:12;7.00;81.80
15105;DHT22;7653;48.994;9.212;2022-09-20T23:48:38;6.50;80.20
15105;DHT22;7653;48.994;9.212;2022-09-20T23:51:11;6.60;82.80
15105;DHT22;7653;48.994;9.212;2022-09-20T23:53:39;6.70;84.60
15105;DHT22;7653;48.994;9.212;2022-09-20T23:56:06;6.80;84.50
15105;DHT22;7653;48.994;9.212;2022-09-20T23:58:35;6.90;83.80
